Time;durP1;ratioP1;P1;durP2;ratioP2;P2;SDS_P1;SDS_P2;PMS_P1;PMS_P2;Temp;Humidity;BMP_temperature;BMP_pressure;BME280_temperature;BME280_humidity;BME280_pressure;Samples;Min_cycle;Max_cycle;Signal;HPM_P1;HPM_P2
2023/10/08 00:03:58;;;;;;;15.30;5.25;;;;;;;24.26;36.86;99108.42;1770966;81;21292;-80
2023/10/08 00:07:03;;;;;;;21.80;5.05;;;;;;;24.16;36.61;99107.97;1769722;81;21910;-80
2023/10/08 00:10:09;;;;;;;16.80;5.87;;;;;;;24.27;36.27;99095.28;1771136;81;21291;-80
2023/10/08 00:13:22;;;;;;;9.70;4.53;;;;;;;24.18;36.09;99094.56;1770195;81;21335;-80
2023/10/08 00:16:29;;;;;;;19.02;5.53;;;;;;;24.18;35.71;99096.48;1770186;81;21939;-79
2023/10/08 00:19:37;;;;;;;12.35;4.87;;;;;;;24.10;35.65;99088.20;1769535;81;21859;-82
2023/10/08 00:22:44;;;;;;;12.05;5.00;;;;;;;24.32;35.19;99093.83;1770932;81;21354;-82
2023/10/08 00:25:50;;;;;;;15.32;5.22;;;;;;;24.45;34.82;99086.17;1770673;81;21335;-80
2023/10/08 00:28:56;;;;;;;9.70;5.08;;;;;;;24.27;34.98;99089.13;1769759;81;22588;-79
2023/10/08 00:32:11;;;;;;;18.32;6.25;;;;;;;24.20;34.77;99088.09;1770533;79;21346;-81
2023/10/08 00:35:13;;;;;;;19.15;5.80;;;;;;;24.27;34.57;99082.71;1769372;81;21300;-80
2023/10/08 00:38:20;;;;;;;14.43;5.97;;;;;;;24.20;34.48;99089.49;1771344;81;21296;-80
2023/10/08 00:41:31;;;;;;;15.15;6.53;;;;;;;24.23;34.44;99079.14;1770830;81;21304;-80
2023/10/08 00:44:51;;;;;;;17.90;5.95;;;;;;;24.26;34.50;99083.84;1769630;81;21339;-80
2023/10/08 00:47:57;;;;;;;26.12;6.15;;;;;;;24.34;34.67;99080.41;1769511;81;21344;-80
2023/10/08 00:54:32;;;;;;;16.52;5.55;;;;;;;24.62;34.55;99070.33;1770917;81;21304;-80
2023/10/08 00:57:37;;;;;;;15.08;6.22;;;;;;;24.66;34.27;99070.83;1770013;81;21307;-80
2023/10/08 01:00:46;;;;;;;14.83;6.20;;;;;;;24.44;34.45;99070.55;1772056;81;21708;-79
2023/10/08 01:03:51;;;;;;;13.15;6.25;;;;;;;24.00;34.83;99068.77;1771468;81;21296;-80
2023/10/08 01:07:01;;;;;;;16.82;5.85;;;;;;;23.77;35.10;99060.61;1769611;81;21681;-80
2023/10/08 01:10:13;;;;;;;17.87;6.37;;;;;;;23.84;34.92;99056.89;1771387;81;21296;-80
2023/10/08 01:13:19;;;;;;;19.27;6.30;;;;;;;23.81;34.76;99062.26;1762495;81;21320;-80
2023/10/08 01:16:25;;;;;;;17.50;5.50;;;;;;;23.63;35.10;99057.63;1770953;81;22619;-80
2023/10/08 01:19:31;;;;;;;15.40;5.58;;;;;;;23.65;35.22;99062.94;1771143;81;21304;-80
2023/10/08 01:22:38;;;;;;;14.10;5.28;;;;;;;23.98;34.97;99064.84;1769480;81;21335;-80
2023/10/08 01:26:09;;;;;;;15.35;5.95;;;;;;;23.93;34.82;99057.09;1769620;81;21327;-80
2023/10/08 01:29:03;;;;;;;12.25;5.58;;;;;;;23.78;35.12;99055.85;1770443;81;21326;-80
2023/10/08 01:32:11;;;;;;;26.05;6.15;;;;;;;23.84;35.17;99056.06;1772118;79;21371;-80
2023/10/08 01:35:24;;;;;;;13.55;5.25;;;;;;;23.77;35.40;99054.19;1775264;81;21311;-80
2023/10/08 01:38:33;;;;;;;15.88;6.03;;;;;;;23.68;35.58;99047.84;1775308;81;21292;-80
2023/10/08 01:41:40;;;;;;;16.32;5.72;;;;;;;23.84;35.33;99044.33;1776763;81;21279;-80
2023/10/08 01:44:48;;;;;;;16.05;5.78;;;;;;;24.00;35.23;99042.23;1776016;81;21366;-79
2023/10/08 01:47:55;;;;;;;13.65;5.60;;;;;;;23.67;35.74;99043.95;1775190;81;21366;-79
2023/10/08 01:51:08;;;;;;;20.27;5.55;;;;;;;23.73;35.93;99045.56;1775382;81;21854;-79
2023/10/08 01:54:11;;;;;;;17.27;6.67;;;;;;;23.85;35.90;99040.97;1776986;81;21355;-79
2023/10/08 01:57:17;;;;;;;18.65;6.67;;;;;;;23.80;36.21;99050.80;1776509;81;21890;-80
2023/10/08 02:00:23;;;;;;;18.30;5.80;;;;;;;23.69;36.42;99055.08;1775724;81;21336;-80
2023/10/08 02:03:29;;;;;;;13.32;6.42;;;;;;;23.63;36.73;99050.64;1776809;81;22058;-80
2023/10/08 02:06:34;;;;;;;13.35;6.10;;;;;;;23.50;37.41;99047.13;1775449;81;21652;-80
2023/10/08 02:09:41;;;;;;;18.62;7.37;;;;;;;23.69;37.79;99053.69;1776908;80;21296;-80
2023/10/08 02:12:48;;;;;;;11.70;6.37;;;;;;;23.66;38.39;99052.86;1775459;81;21295;-80
2023/10/08 02:15:59;;;;;;;19.40;6.55;;;;;;;23.48;39.27;99046.59;1775701;80;21327;-80
2023/10/08 02:19:06;;;;;;;23.25;6.45;;;;;;;23.30;40.38;99043.95;1775643;81;21347;-81
2023/10/08 02:22:14;;;;;;;22.02;6.90;;;;;;;23.40;40.41;99038.84;1775320;81;21293;-80
2023/10/08 02:25:22;;;;;;;16.73;6.90;;;;;;;23.21;41.07;99033.13;1775273;81;21331;-80
2023/10/08 02:28:28;;;;;;;12.43;6.22;;;;;;;23.10;41.61;99037.09;1776059;81;21909;-80
2023/10/08 02:31:35;;;;;;;17.73;7.47;;;;;;;23.03;41.99;99034.64;1775271;81;22016;-80
2023/10/08 02:34:41;;;;;;;22.52;7.08;;;;;;;22.84;42.40;99037.24;1771679;79;21335;-81
2023/10/08 02:37:49;;;;;;;15.25;7.60;;;;;;;22.86;42.65;99036.94;1770792;81;21295;-80
2023/10/08 02:40:56;;;;;;;12.13;6.50;;;;;;;22.98;42.73;99033.28;1771047;81;21289;-80
2023/10/08 02:44:05;;;;;;;20.20;6.45;;;;;;;22.75;43.27;99034.78;1770920;81;21862;-80
2023/10/08 02:47:12;;;;;;;21.42;7.03;;;;;;;22.66;43.74;99030.36;1770910;81;21244;-80
2023/10/08 02:50:19;;;;;;;17.10;6.53;;;;;;;22.69;44.04;99032.59;1771129;81;21299;-80
2023/10/08 02:53:25;;;;;;;12.65;7.30;;;;;;;22.66;44.25;99028.14;1772046;81;21796;-80
2023/10/08 02:56:32;;;;;;;22.62;7.75;;;;;;;22.64;44.58;99020.08;1771213;81;21862;-80
2023/10/08 02:59:44;;;;;;;13.40;7.50;;;;;;;22.61;44.77;99015.06;1769404;81;21339;-79
2023/10/08 03:02:51;;;;;;;17.10;8.40;;;;;;;22.38;45.28;99013.78;1770911;81;21351;-80
2023/10/08 03:06:03;;;;;;;15.98;8.43;;;;;;;22.47;45.33;99007.05;1770863;81;22569;-80
2023/10/08 03:09:10;;;;;;;18.15;8.50;;;;;;;22.37;45.35;99008.50;1770707;81;21324;-80
2023/10/08 03:12:17;;;;;;;15.38;8.85;;;;;;;21.95;46.64;99004.98;1771077;81;22550;-80
2023/10/08 03:15:31;;;;;;;18.60;9.63;;;;;;;21.90;46.99;99008.34;1770726;81;21319;-81
2023/10/08 03:18:42;;;;;;;23.45;9.13;;;;;;;21.82;47.31;99001.39;1770682;81;21300;-80
2023/10/08 03:21:51;;;;;;;17.30;8.98;;;;;;;21.83;47.43;98997.52;1770990;81;21303;-80
2023/10/08 03:24:57;;;;;;;20.32;9.38;;;;;;;21.83;47.72;99003.62;1770896;81;21869;-80
2023/10/08 03:28:07;;;;;;;20.20;8.60;;;;;;;21.79;48.06;98996.41;1770976;81;21850;-80
2023/10/08 03:31:17;;;;;;;19.87;7.97;;;;;;;21.74;48.43;98990.86;1769996;81;21312;-79
2023/10/08 03:34:33;;;;;;;15.15;7.92;;;;;;;21.75;48.74;98993.08;1770944;79;21334;-79
2023/10/08 03:37:41;;;;;;;13.38;7.60;;;;;;;21.63;49.27;98985.85;1770934;81;21296;-80
2023/10/08 03:40:44;;;;;;;23.35;6.28;;;;;;;21.47;49.97;98979.22;1771046;81;21331;-79
2023/10/08 03:43:55;;;;;;;15.63;6.70;;;;;;;21.65;49.95;98978.08;1770879;81;21291;-79
2023/10/08 03:47:07;;;;;;;14.87;6.20;;;;;;;21.66;50.18;98974.17;1770025;81;21319;-79
2023/10/08 03:50:10;;;;;;;13.88;6.08;;;;;;;21.65;50.41;98968.34;1769951;81;21949;-79
2023/10/08 03:53:16;;;;;;;13.10;7.08;;;;;;;21.64;50.63;98968.59;1770970;81;21296;-79
2023/10/08 03:56:22;;;;;;;15.63;6.22;;;;;;;21.62;50.71;98967.49;1769491;81;21319;-79
2023/10/08 03:59:33;;;;;;;14.28;6.83;;;;;;;21.52;51.08;98961.95;1770566;81;21335;-79
2023/10/08 04:02:41;;;;;;;14.78;7.03;;;;;;;21.48;51.19;98954.45;1770615;81;21336;-79
2023/10/08 04:06:14;;;;;;;16.40;6.90;;;;;;;21.37;51.45;98943.91;1771062;81;21327;-79
2023/10/08 04:12:18;;;;;;;15.88;6.22;;;;;;;21.52;51.49;98945.83;1770954;81;21851;-79
2023/10/08 04:15:23;;;;;;;14.78;6.75;;;;;;;21.65;50.90;98939.68;1769471;81;21307;-79
2023/10/08 04:18:28;;;;;;;13.98;7.12;;;;;;;20.56;53.64;98946.04;1770985;81;21308;-79
2023/10/08 04:21:35;;;;;;;13.85;7.45;;;;;;;20.35;54.91;98934.86;1770888;81;21331;-79
2023/10/08 04:24:43;;;;;;;12.98;6.08;;;;;;;20.33;55.27;98937.09;1770929;81;21299;-79
2023/10/08 04:27:50;;;;;;;12.47;6.03;;;;;;;20.28;55.65;98931.52;1771158;81;21299;-79
2023/10/08 04:31:00;;;;;;;14.00;6.58;;;;;;;20.12;56.45;98942.28;1769748;81;21899;-79
2023/10/08 04:34:09;;;;;;;11.20;6.70;;;;;;;20.16;56.38;98948.41;1769794;81;21296;-79
2023/10/08 04:37:13;;;;;;;15.38;6.62;;;;;;;20.23;56.52;98941.75;1770720;80;22689;-79
2023/10/08 04:40:23;;;;;;;15.10;6.37;;;;;;;20.39;56.01;98940.70;1770501;81;21327;-79
2023/10/08 04:43:31;;;;;;;19.60;6.87;;;;;;;20.43;55.93;98939.06;1771301;81;21308;-79
2023/10/08 04:49:45;;;;;;;14.78;6.10;;;;;;;20.26;56.73;98952.33;1771183;81;21340;-79
2023/10/08 04:52:58;;;;;;;18.70;6.22;;;;;;;20.31;56.60;98956.50;1771204;81;21336;-79
2023/10/08 04:55:54;;;;;;;13.88;6.25;;;;;;;20.36;56.54;98960.69;1771105;81;21308;-79
2023/10/08 04:59:00;;;;;;;14.35;6.40;;;;;;;20.49;56.31;98956.03;1770923;81;21295;-79
2023/10/08 05:05:55;;;;;;;12.68;7.50;;;;;;;20.54;56.10;98949.66;1771136;81;21291;-79
2023/10/08 05:08:57;;;;;;;14.50;7.30;;;;;;;20.38;56.55;98952.38;1771067;81;21296;-79
2023/10/08 05:15:33;;;;;;;17.10;7.50;;;;;;;20.52;56.37;98951.33;1771600;81;21280;-79
2023/10/08 05:28:24;;;;;;;19.15;9.28;;;;;;;20.44;56.87;98953.22;1771089;81;21296;-79
2023/10/08 05:35:30;;;;;;;22.07;13.83;;;;;;;20.42;57.12;98961.83;1771016;81;21330;-79
2023/10/08 05:38:12;;;;;;;24.72;14.47;;;;;;;20.49;57.07;98967.15;1770197;79;21370;-79
2023/10/08 05:50:55;;;;;;;25.72;13.93;;;;;;;20.49;57.49;98975.48;1777827;80;21331;-79
2023/10/08 05:53:56;;;;;;;21.30;13.13;;;;;;;20.50;57.40;98974.36;1779252;80;21301;-79
2023/10/08 05:57:14;;;;;;;19.82;13.00;;;;;;;20.43;57.54;98967.66;1779351;80;21626;-79
2023/10/08 06:03:48;;;;;;;23.52;13.55;;;;;;;20.34;57.91;98966.52;1779001;80;21331;-79
2023/10/08 06:06:57;;;;;;;21.75;12.80;;;;;;;20.49;57.57;98981.59;1779202;80;21287;-79
2023/10/08 06:10:13;;;;;;;18.42;11.90;;;;;;;20.58;57.25;98971.06;1777719;80;21296;-79
2023/10/08 06:13:29;;;;;;;18.10;11.88;;;;;;;20.57;57.47;98973.56;1779269;80;21288;-79
2023/10/08 06:16:41;;;;;;;24.12;12.82;;;;;;;20.52;57.52;98969.39;1778853;80;21295;-79
2023/10/08 06:19:40;;;;;;;22.50;13.18;;;;;;;20.42;57.89;98956.84;1777733;80;21347;-79
2023/10/08 06:22:46;;;;;;;32.08;13.88;;;;;;;20.51;57.66;98961.30;1777417;80;21304;-79
2023/10/08 06:25:57;;;;;;;21.25;13.22;;;;;;;20.46;57.90;98962.09;1779013;80;21846;-79
2023/10/08 06:29:18;;;;;;;22.90;12.15;;;;;;;20.29;58.34;98965.12;1780139;80;21259;-79
2023/10/08 06:32:12;;;;;;;25.35;12.30;;;;;;;20.31;58.42;98958.72;1778773;80;21336;-79
2023/10/08 06:35:24;;;;;;;23.73;13.75;;;;;;;20.31;58.69;98964.28;1777429;80;21331;-79
2023/10/08 06:38:30;;;;;;;24.72;13.72;;;;;;;20.32;58.71;98971.49;1777958;80;21324;-79
2023/10/08 06:41:35;;;;;;;20.70;13.18;;;;;;;20.33;58.94;98962.64;1778851;80;22029;-79
2023/10/08 06:44:46;;;;;;;21.45;13.70;;;;;;;20.42;58.73;98970.72;1779702;80;21862;-79
2023/10/08 06:47:51;;;;;;;28.83;14.00;;;;;;;20.35;58.92;98968.19;1779263;80;21295;-79
2023/10/08 06:51:07;;;;;;;19.05;12.10;;;;;;;20.17;59.70;98967.28;1779262;80;21308;-79
2023/10/08 06:54:10;;;;;;;24.52;13.10;;;;;;;20.20;59.74;98970.91;1780257;80;21264;-80
2023/10/08 06:57:14;;;;;;;20.00;12.03;;;;;;;20.22;59.99;98970.63;1779350;80;21331;-79
2023/10/08 07:00:37;;;;;;;20.02;10.32;;;;;;;20.32;59.93;98972.05;1779317;80;22600;-80
2023/10/08 07:03:24;;;;;;;15.80;10.95;;;;;;;20.31;60.13;98971.22;1778175;80;21335;-80
2023/10/08 07:06:37;;;;;;;18.45;10.10;;;;;;;20.35;60.17;98971.52;1779178;80;21324;-79
2023/10/08 07:09:44;;;;;;;19.98;10.08;;;;;;;20.43;60.04;98977.94;1779323;80;21292;-80
2023/10/08 07:12:53;;;;;;;17.27;8.43;;;;;;;20.47;59.96;98974.06;1778303;80;21665;-80
2023/10/08 07:16:03;;;;;;;16.73;7.58;;;;;;;20.41;60.01;98977.36;1779303;80;21319;-80
2023/10/08 07:19:18;;;;;;;14.15;7.10;;;;;;;20.51;59.77;98975.20;1779324;80;21847;-80
2023/10/08 07:22:22;;;;;;;14.18;6.65;;;;;;;20.55;59.75;98977.15;1778797;80;21307;-79
2023/10/08 07:25:36;;;;;;;15.18;6.67;;;;;;;20.59;59.61;98970.50;1779148;80;21300;-79
2023/10/08 07:28:43;;;;;;;9.60;5.87;;;;;;;20.59;59.58;98975.50;1764538;80;21292;-79
2023/10/08 07:31:55;;;;;;;11.90;6.67;;;;;;;20.54;59.54;98975.48;1777722;80;21433;-79
2023/10/08 07:35:14;;;;;;;11.03;5.85;;;;;;;20.56;59.37;98983.02;1778561;80;21320;-79
2023/10/08 07:38:09;;;;;;;5.60;3.55;;;;;;;20.30;60.00;98981.22;1779052;80;21303;-79
2023/10/08 07:41:19;;;;;;;5.35;3.10;;;;;;;20.11;59.74;98973.37;1776072;79;21355;-79
2023/10/08 07:44:25;;;;;;;5.03;2.02;;;;;;;19.99;59.73;98974.13;1770943;81;21315;-79
2023/10/08 07:47:33;;;;;;;10.80;2.80;;;;;;;19.91;59.28;98983.00;1770937;81;21280;-79
2023/10/08 07:50:40;;;;;;;2.60;1.60;;;;;;;19.89;59.48;98984.63;1770238;81;21350;-78
2023/10/08 07:53:47;;;;;;;5.22;1.80;;;;;;;19.99;59.05;98988.56;1769667;81;21324;-79
2023/10/08 07:57:18;;;;;;;3.80;1.50;;;;;;;19.93;58.47;98988.27;1770903;81;21338;-79
2023/10/08 08:00:30;;;;;;;7.60;1.98;;;;;;;20.30;57.50;98980.66;1771036;81;21863;-79
2023/10/08 08:03:11;;;;;;;2.37;1.20;;;;;;;19.69;59.04;98979.53;1769813;81;21858;-79
2023/10/08 08:06:18;;;;;;;3.30;1.20;;;;;;;19.69;59.34;98971.21;1769858;81;21801;-79
2023/10/08 08:09:28;;;;;;;1.90;1.12;;;;;;;19.80;58.96;98977.09;1770900;81;21293;-79
2023/10/08 08:12:32;;;;;;;3.62;1.17;;;;;;;19.60;59.30;98971.70;1771072;81;21363;-79
2023/10/08 08:15:26;;;;;;;2.25;1.15;;;;;;;19.55;58.86;98969.42;1770870;81;21862;-79
2023/10/08 08:18:32;;;;;;;2.33;1.25;;;;;;;19.48;59.00;98989.08;1770931;81;21315;-79
2023/10/08 08:21:44;;;;;;;4.03;1.30;;;;;;;19.58;58.91;98995.25;1771276;81;21878;-79
2023/10/08 08:24:47;;;;;;;3.90;1.70;;;;;;;19.54;59.07;98989.95;1770832;81;21272;-79
2023/10/08 08:27:55;;;;;;;4.25;1.47;;;;;;;19.59;59.03;98996.36;1770925;81;21292;-79
2023/10/08 08:31:04;;;;;;;2.58;1.40;;;;;;;19.40;59.47;99007.04;1770989;81;21300;-79
2023/10/08 08:34:17;;;;;;;2.17;1.00;;;;;;;19.32;60.06;99026.09;1761737;81;21374;-79
2023/10/08 08:37:26;;;;;;;6.08;1.52;;;;;;;18.84;57.52;99062.50;1769670;81;21363;-79
2023/10/08 08:40:32;;;;;;;5.30;1.70;;;;;;;18.00;56.97;99062.24;1771016;81;22557;-79
2023/10/08 08:43:43;;;;;;;4.22;1.98;;;;;;;17.21;56.87;99083.61;1773813;79;22642;-79
2023/10/08 08:46:46;;;;;;;7.00;2.30;;;;;;;16.67;56.45;99077.61;1784570;80;21296;-79
2023/10/08 08:49:55;;;;;;;5.58;2.22;;;;;;;16.29;57.00;99088.70;1783171;80;21315;-79
2023/10/08 08:53:04;;;;;;;4.07;2.20;;;;;;;15.76;57.59;99096.06;1784813;80;21335;-79
2023/10/08 08:56:13;;;;;;;7.65;2.22;;;;;;;15.65;58.50;99089.16;1784636;80;21284;-79
2023/10/08 08:59:20;;;;;;;7.53;2.80;;;;;;;15.48;59.14;99086.22;1784717;80;21917;-79
2023/10/08 09:02:26;;;;;;;9.58;2.58;;;;;;;15.39;59.70;99099.53;1785365;80;21346;-79
2023/10/08 09:05:35;;;;;;;6.03;2.30;;;;;;;15.35;60.18;99112.09;1784684;80;21291;-79
2023/10/08 09:08:45;;;;;;;8.65;2.80;;;;;;;15.51;59.83;99115.52;1783028;80;21300;-79
2023/10/08 09:11:57;;;;;;;10.58;2.92;;;;;;;15.60;60.03;99119.61;1783185;80;21295;-79
2023/10/08 09:14:59;;;;;;;9.13;3.02;;;;;;;15.71;60.30;99125.41;1783647;80;21901;-79
2023/10/08 09:18:06;;;;;;;9.43;3.20;;;;;;;15.93;59.89;99125.66;1784927;80;21287;-80
2023/10/08 09:21:23;;;;;;;9.03;3.30;;;;;;;15.84;60.37;99127.94;1784800;80;21303;-79
2023/10/08 09:24:19;;;;;;;9.83;3.08;;;;;;;15.78;60.20;99134.41;1784273;80;21307;-79
2023/10/08 09:27:25;;;;;;;9.60;3.40;;;;;;;15.66;60.40;99145.41;1784910;80;21288;-79
2023/10/08 09:30:30;;;;;;;7.65;3.20;;;;;;;15.59;60.95;99151.02;1751970;80;21314;-79
2023/10/08 09:33:38;;;;;;;10.82;3.10;;;;;;;15.41;60.90;99157.98;1784742;80;21338;-80
2023/10/08 09:36:48;;;;;;;8.68;4.45;;;;;;;15.44;61.30;99146.50;1784661;80;21866;-80
2023/10/08 09:39:53;;;;;;;7.47;3.62;;;;;;;15.36;61.34;99149.59;1784813;80;21299;-79
2023/10/08 09:42:58;;;;;;;8.43;3.45;;;;;;;15.37;61.51;99144.91;1783527;80;21291;-80
2023/10/08 09:46:21;;;;;;;7.40;2.40;;;;;;;15.36;61.45;99148.75;1782888;79;21347;-80
2023/10/08 09:49:35;;;;;;;10.88;3.30;;;;;;;15.34;61.56;99152.59;1784840;80;22589;-80
2023/10/08 09:53:24;;;;;;;8.75;3.45;;;;;;;15.42;60.63;99156.90;1784115;80;21913;-80
2023/10/08 09:56:27;;;;;;;11.43;2.83;;;;;;;15.47;61.05;99154.27;1784792;80;21326;-79
2023/10/08 09:59:35;;;;;;;6.17;2.52;;;;;;;15.24;60.40;99161.96;1784897;80;21189;-80
2023/10/08 10:02:42;;;;;;;5.92;2.30;;;;;;;15.20;60.34;99159.91;1784750;80;21326;-79
2023/10/08 10:05:50;;;;;;;8.83;3.35;;;;;;;15.31;60.44;99161.31;1783645;80;21327;-80
2023/10/08 10:08:57;;;;;;;10.80;3.00;;;;;;;15.59;59.78;99164.80;1751601;80;21356;-80
2023/10/08 10:12:09;;;;;;;18.07;2.80;;;;;;;15.80;59.33;99167.55;1783422;80;21339;-79
2023/10/08 10:15:12;;;;;;;6.83;2.90;;;;;;;15.91;59.10;99181.06;1784171;80;21339;-79
2023/10/08 10:18:32;;;;;;;6.70;2.75;;;;;;;15.68;59.49;99176.35;1772129;80;21311;-79
2023/10/08 10:21:41;;;;;;;7.53;3.50;;;;;;;15.75;59.16;99163.83;1785246;80;21292;-79
2023/10/08 10:24:47;;;;;;;6.30;2.80;;;;;;;15.75;59.42;99169.34;1784440;80;21307;-79
2023/10/08 10:28:06;;;;;;;11.73;3.37;;;;;;;15.73;59.56;99183.91;1771259;80;21310;-79
2023/10/08 10:31:13;;;;;;;7.30;3.75;;;;;;;15.65;59.89;99186.46;1785179;80;21161;-79
2023/10/08 10:34:20;;;;;;;10.98;3.90;;;;;;;15.71;60.23;99186.88;1783186;80;21298;-79
2023/10/08 10:37:40;;;;;;;11.90;4.03;;;;;;;15.83;60.46;99182.24;1784876;80;21292;-79
2023/10/08 10:40:42;;;;;;;6.40;3.60;;;;;;;15.82;60.56;99181.11;1784579;80;21292;-79
2023/10/08 10:43:52;;;;;;;7.80;3.67;;;;;;;16.05;60.03;99178.37;1784648;80;21279;-79
2023/10/08 10:50:31;;;;;;;10.85;4.08;;;;;;;15.26;63.40;99182.38;1779597;80;21292;-79
2023/10/08 10:54:39;;;;;;;8.85;3.35;;;;;;;15.48;63.10;99186.29;1778569;80;21327;-80
2023/10/08 10:57:05;;;;;;;11.33;4.00;;;;;;;15.34;60.99;99180.67;1766789;80;21296;-81
2023/10/08 11:03:35;;;;;;;7.72;2.42;;;;;;;14.89;57.45;99187.95;1777793;80;21300;-81
2023/10/08 11:06:41;;;;;;;4.33;2.37;;;;;;;14.65;54.94;99197.16;1777828;80;21918;-80
2023/10/08 11:09:48;;;;;;;5.28;1.85;;;;;;;14.33;55.26;99219.27;1777859;80;21332;-81
2023/10/08 11:12:58;;;;;;;6.33;2.27;;;;;;;14.25;55.12;99230.55;1763942;80;21303;-81
2023/10/08 11:16:02;;;;;;;5.70;2.70;;;;;;;14.16;56.23;99236.03;1778394;80;21378;-81
2023/10/08 11:19:09;;;;;;;6.50;2.70;;;;;;;14.22;57.28;99235.15;1777356;80;21311;-81
2023/10/08 11:22:22;;;;;;;6.15;2.65;;;;;;;14.17;56.89;99245.45;1777352;80;21879;-81
2023/10/08 11:25:32;;;;;;;10.15;2.47;;;;;;;14.16;55.71;99225.03;1777613;80;21942;-82
2023/10/08 11:28:47;;;;;;;6.60;2.25;;;;;;;14.00;55.87;99242.41;1778527;80;21319;-82
2023/10/08 11:31:54;;;;;;;9.00;2.90;;;;;;;13.74;56.33;99237.98;1777890;80;21654;-81
2023/10/08 11:35:16;;;;;;;5.55;2.87;;;;;;;13.64;56.50;99232.11;1779131;80;21300;-82
2023/10/08 11:38:22;;;;;;;5.62;2.60;;;;;;;13.69;56.06;99236.94;1779226;80;21319;-81
2023/10/08 11:41:27;;;;;;;14.70;2.95;;;;;;;13.47;56.03;99233.20;1779186;80;21292;-81
2023/10/08 11:44:36;;;;;;;5.50;2.37;;;;;;;13.49;56.09;99242.58;1779284;80;21296;-81
2023/10/08 11:47:45;;;;;;;7.30;3.08;;;;;;;13.67;55.90;99240.45;1772787;79;21352;-81
2023/10/08 11:50:50;;;;;;;10.58;2.83;;;;;;;13.49;56.17;99235.17;1771125;81;21331;-81
2023/10/08 11:53:57;;;;;;;4.70;2.17;;;;;;;13.35;57.10;99234.95;1769546;81;21335;-83
2023/10/08 11:57:03;;;;;;;6.85;3.00;;;;;;;13.35;57.77;99239.06;1769747;81;21336;-83
2023/10/08 12:00:18;;;;;;;9.08;2.47;;;;;;;13.45;57.82;99235.30;1770997;81;21639;-81
2023/10/08 12:03:25;;;;;;;;;;;;;;;13.47;58.02;99246.93;1772367;81;21320;-82
2023/10/08 12:06:32;;;;;;;6.15;2.85;;;;;;;13.52;58.11;99248.48;1770501;81;20295;-81
2023/10/08 12:09:40;;;;;;;9.63;3.25;;;;;;;13.43;58.28;99247.05;1770809;81;21347;-81
2023/10/08 12:12:46;;;;;;;10.90;3.25;;;;;;;13.58;58.11;99244.00;1769369;81;21300;-83
2023/10/08 12:16:05;;;;;;;5.45;3.15;;;;;;;13.53;58.66;99224.59;1770960;81;21291;-83
2023/10/08 12:19:00;;;;;;;8.70;2.67;;;;;;;13.58;58.90;99206.07;1771072;81;21313;-83
2023/10/08 12:22:08;;;;;;;10.00;2.65;;;;;;;13.67;58.94;99195.95;1771081;81;21311;-83
2023/10/08 12:25:15;;;;;;;5.67;2.00;;;;;;;13.80;58.87;99184.86;1770354;81;21355;-83
2023/10/08 12:28:27;;;;;;;2.72;1.65;;;;;;;13.91;58.91;99191.52;1770747;81;21293;-83
2023/10/08 12:31:33;;;;;;;5.45;1.77;;;;;;;14.02;58.57;99188.06;1771120;81;21327;-83
2023/10/08 12:34:39;;;;;;;7.15;4.83;;;;;;;14.26;58.05;99182.21;1769563;81;21491;-84
2023/10/08 12:37:47;;;;;;;8.08;2.83;;;;;;;14.44;57.93;99185.48;1769644;81;21336;-83
2023/10/08 12:40:59;;;;;;;4.75;2.00;;;;;;;14.56;57.99;99186.45;1770128;81;21316;-83
2023/10/08 12:44:07;;;;;;;4.62;1.62;;;;;;;14.62;57.65;99196.23;1770931;81;21350;-83
2023/10/08 12:47:13;;;;;;;5.17;2.15;;;;;;;14.72;57.55;99197.91;1770442;79;21343;-83
2023/10/08 12:50:42;;;;;;;6.05;2.50;;;;;;;15.05;56.81;99185.92;1762705;80;21299;-83
2023/10/08 12:53:39;;;;;;;3.20;1.85;;;;;;;15.12;56.56;99194.66;1779249;80;21287;-83
2023/10/08 12:56:45;;;;;;;6.15;2.33;;;;;;;15.08;56.73;99192.36;1778001;80;21327;-83
2023/10/08 12:59:51;;;;;;;4.12;2.15;;;;;;;15.26;56.56;99193.39;1777997;80;21308;-83
2023/10/08 13:02:54;;;;;;;9.83;3.27;;;;;;;15.32;56.35;99192.45;1779549;80;21296;-83
2023/10/08 13:06:06;;;;;;;9.23;3.25;;;;;;;15.46;56.00;99193.94;1779384;80;21296;-82
2023/10/08 13:09:15;;;;;;;10.50;3.70;;;;;;;15.43;56.10;99185.29;1779496;80;21347;-83
2023/10/08 13:12:16;;;;;;;6.58;4.42;;;;;;;15.55;55.75;99193.06;1779287;80;21287;-80
2023/10/08 13:15:12;;;;;;;5.72;3.52;;;;;;;15.51;55.84;99194.06;1779229;80;21296;-82
2023/10/08 13:18:18;;;;;;;4.55;2.50;;;;;;;15.52;55.88;99192.98;1778100;80;21905;-82
2023/10/08 13:21:25;;;;;;;5.80;2.25;;;;;;;15.38;56.02;99198.39;1779147;80;21874;-83
2023/10/08 13:24:31;;;;;;;9.18;3.20;;;;;;;15.52;55.45;99206.77;1779241;80;21330;-82
2023/10/08 13:27:39;;;;;;;4.45;2.60;;;;;;;15.65;55.12;99221.46;1778918;80;21866;-82
2023/10/08 13:30:46;;;;;;;5.45;2.08;;;;;;;15.83;54.61;99223.60;1777661;80;21295;-82
2023/10/08 13:33:56;;;;;;;4.33;2.42;;;;;;;15.85;54.58;99224.73;1779251;80;21311;-81
2023/10/08 13:37:00;;;;;;;5.95;2.87;;;;;;;15.68;55.03;99216.86;1779277;80;21300;-81
2023/10/08 13:40:06;;;;;;;6.50;2.87;;;;;;;15.75;55.07;99217.58;1779271;80;21300;-81
2023/10/08 13:43:11;;;;;;;5.78;2.52;;;;;;;15.82;54.79;99216.41;1779131;80;21307;-81
2023/10/08 13:46:17;;;;;;;8.68;2.92;;;;;;;15.89;54.68;99207.18;1779036;80;21288;-80
2023/10/08 13:49:26;;;;;;;10.88;3.00;;;;;;;15.75;55.01;99207.94;1775058;79;21339;-81
2023/10/08 13:52:33;;;;;;;6.90;2.90;;;;;;;15.93;54.38;99205.09;1770939;81;21294;-81
2023/10/08 13:55:45;;;;;;;6.83;2.98;;;;;;;15.76;54.69;99204.09;1772731;79;21292;-80
2023/10/08 13:58:51;;;;;;;4.35;2.47;;;;;;;15.92;54.45;99214.98;1769533;81;21350;-80
2023/10/08 14:01:57;;;;;;;7.75;2.47;;;;;;;15.84;54.34;99217.54;1769893;81;21346;-80
2023/10/08 14:05:08;;;;;;;7.00;2.35;;;;;;;15.82;54.23;99240.39;1770335;81;21311;-80
2023/10/08 14:08:15;;;;;;;4.50;2.52;;;;;;;15.72;54.19;99241.51;1770019;81;21339;-80
2023/10/08 14:11:18;;;;;;;4.28;2.52;;;;;;;15.77;54.06;99231.98;1770884;81;21299;-80
2023/10/08 14:14:29;;;;;;;7.85;2.83;;;;;;;15.88;53.47;99207.72;1770755;81;21299;-80
2023/10/08 14:17:48;;;;;;;8.15;2.67;;;;;;;15.77;53.39;99236.13;1770549;81;21342;-80
2023/10/08 14:20:53;;;;;;;;;;;;;;;15.86;53.12;99234.70;1773317;81;21307;-81
2023/10/08 14:24:15;;;;;;;7.85;2.55;;;;;;;15.84;52.89;99234.09;1769185;81;20278;-81
2023/10/08 14:27:10;;;;;;;6.25;3.20;;;;;;;15.89;52.65;99228.70;1769296;81;21303;-81
2023/10/08 14:30:21;;;;;;;6.20;3.40;;;;;;;15.78;52.68;99236.42;1770991;81;21318;-80
2023/10/08 14:33:26;;;;;;;10.82;3.20;;;;;;;15.65;52.87;99226.43;1769820;81;21300;-80
2023/10/08 14:43:23;;;;;;;8.50;3.72;;;;;;;15.52;52.99;99239.83;1770804;81;21326;-80
2023/10/08 14:46:31;;;;;;;6.70;3.58;;;;;;;15.37;53.36;99244.93;1769623;81;21962;-79
2023/10/08 14:49:38;;;;;;;7.42;3.70;;;;;;;15.47;53.00;99268.63;1769393;80;21851;-80
2023/10/08 14:52:44;;;;;;;5.33;3.35;;;;;;;15.53;52.87;99290.31;1779361;80;21315;-80
2023/10/08 14:55:50;;;;;;;5.15;2.98;;;;;;;15.49;52.73;99283.03;1777744;80;21877;-80
2023/10/08 14:58:55;;;;;;;8.43;4.00;;;;;;;15.42;52.73;99264.36;1778898;80;21327;-80
2023/10/08 15:02:01;;;;;;;6.50;3.17;;;;;;;15.36;52.92;99273.56;1778186;80;21366;-79
2023/10/08 15:05:06;;;;;;;5.33;2.62;;;;;;;15.27;53.02;99274.95;1779248;80;21310;-80
2023/10/08 15:08:14;;;;;;;8.40;3.65;;;;;;;15.23;52.98;99258.58;1779277;80;21327;-80
2023/10/08 15:11:20;;;;;;;6.67;3.02;;;;;;;15.26;52.79;99242.98;1779328;80;21307;-79
2023/10/08 15:14:29;;;;;;;15.05;3.40;;;;;;;15.16;52.12;99297.78;1779076;80;21312;-80
2023/10/08 15:17:34;;;;;;;7.00;2.60;;;;;;;15.09;51.95;99282.16;1779133;80;21311;-79
2023/10/08 15:20:40;;;;;;;5.15;2.60;;;;;;;15.17;51.63;99289.28;1779309;80;21873;-80
2023/10/08 15:23:46;;;;;;;8.03;2.65;;;;;;;15.04;51.13;99277.05;1779237;80;21303;-80
2023/10/08 15:26:52;;;;;;;5.40;2.52;;;;;;;14.97;50.95;99270.79;1779114;80;21303;-80
2023/10/08 15:30:00;;;;;;;4.10;1.92;;;;;;;14.85;51.12;99284.47;1777713;80;21339;-80
2023/10/08 15:33:06;;;;;;;8.80;2.77;;;;;;;14.78;50.77;99284.55;1778867;80;21378;-80
2023/10/08 15:36:13;;;;;;;6.80;2.42;;;;;;;14.78;50.24;99293.34;1779170;80;21934;-80
2023/10/08 15:39:12;;;;;;;6.72;2.30;;;;;;;14.74;50.29;99304.50;1778996;80;21374;-80